Carrier Princess — CZ3582 — position and weather

sailwx.info

Track history (hours):
 
Tides and Currents Weather Stations Pressure Air Temp Water Temp Dewpoint Dewpoint Depression Visibility Wind Speed Wind Dir Waves Ship Positions

Carrier Princess

Last reported at 2014-Oct-01 05:34 UTC. Time now 2014-Oct-01 05:58 UTC.
Position N 49°08' W 123°28'.

Length 112 m; draft 3 m.

Type: Cargo ship. MMSI: 316003656.

Date/timePositionNaut miles runAvg speedWind from/ knotsBaromVisibWave heightAir tempDewpointWater temp
2014-Oct-01 05:34N 49°08' W 123°28'1414.3
2014-Oct-01 04:33N 49°12' W 123°48'5 5.2
2014-Oct-01 03:32N 49°10' W 123°56'0 0.1
2014-Oct-01 02:34N 49°10' W 123°56'1110.9
2014-Oct-01 01:33N 49°12' W 123°39'1413.6
2014-Oct-01 00:33N 49°07' W 123°20'1211.9
2014-Sep-30 23:33N 49°09' W 123°03'0 0.3
2014-Sep-30 22:33N 49°09' W 123°02'4 4.0
2014-Sep-30 21:34N 49°07' W 123°07'9 9.0
2014-Sep-30 20:33N 49°02' W 123°19'1110.7
2014-Sep-30 19:33N 48°52' W 123°21'1110.6
2014-Sep-30 18:33N 48°41' W 123°24'0 0.0
2014-Sep-30 17:33N 48°41' W 123°24'0 0.0
2014-Sep-30 16:32N 48°41' W 123°24'0 0.0
2014-Sep-30 15:33N 48°41' W 123°24'0 0.0
2014-Sep-30 14:33N 48°41' W 123°24'0 0.0
2014-Sep-30 13:33N 48°41' W 123°24'0 0.0
2014-Sep-30 12:32N 48°41' W 123°24'2 2.3
2014-Sep-30 11:33N 48°42' W 123°21'1111.3
2014-Sep-30 10:34N 48°53' W 123°18'1313.3
2014-Sep-30 09:34N 49°07' W 123°17'10 9.9
2014-Sep-30 08:33N 49°09' W 123°02'0 0.0
2014-Sep-30 07:34N 49°09' W 123°02'7 7.3
2014-Sep-30 06:34N 49°08' W 123°13'1212.3
2014-Sep-30 05:33N 49°09' W 123°32'1413.7
2014-Sep-30 04:34N 49°12' W 123°52'3 3.4
2014-Sep-30 03:34N 49°10' W 123°56'1 0.7
2014-Sep-30 02:32N 49°10' W 123°55'1010.4
2014-Sep-30 01:34N 49°12' W 123°39'1312.5
2014-Sep-30 00:33N 49°07' W 123°22'1212.5
2014-Sep-29 23:33N 49°09' W 123°03'0 0.4
2014-Sep-29 22:33N 49°09' W 123°02'0 0.0
2014-Sep-29 21:33N 49°09' W 123°02'0 0.2
2014-Sep-29 20:33N 49°09' W 123°02'0 0.0
2014-Sep-29 19:33N 49°09' W 123°02'0 0.0
2014-Sep-29 18:33N 49°09' W 123°02'0 0.0
2014-Sep-29 17:33N 49°09' W 123°02'0 0.0
2014-Sep-29 16:33N 49°09' W 123°02'0 0.0
2014-Sep-29 15:33N 49°09' W 123°02'0 0.0
2014-Sep-29 14:33N 49°09' W 123°02'0 0.0
2014-Sep-29 13:33N 49°09' W 123°02'0 0.0
2014-Sep-29 12:33N 49°09' W 123°02'0 0.0
2014-Sep-29 11:33N 49°09' W 123°02'0 0.0
2014-Sep-29 10:33N 49°09' W 123°02'0 0.0
2014-Sep-29 09:33N 49°09' W 123°02'0 0.0
2014-Sep-29 08:33N 49°09' W 123°02'0 0.0
2014-Sep-29 07:33N 49°09' W 123°02'0 0.0
2014-Sep-29 06:33N 49°09' W 123°02'0 0.0
2014-Sep-29 05:33N 49°09' W 123°02'0 0.0
2014-Sep-29 04:33N 49°09' W 123°02'0 0.0
2014-Sep-29 03:33N 49°09' W 123°02'0 0.0
2014-Sep-29 02:33N 49°09' W 123°02'0 0.0
2014-Sep-29 01:33N 49°09' W 123°02'0 0.0
2014-Sep-29 00:33N 49°09' W 123°02'0 0.0
2014-Sep-28 23:33N 49°09' W 123°02'0 0.0
2014-Sep-28 22:33N 49°09' W 123°02'0 0.0
2014-Sep-28 21:33N 49°09' W 123°02'0 0.0
2014-Sep-28 20:33N 49°09' W 123°02'0 0.0
2014-Sep-28 19:33N 49°09' W 123°02'0 0.0
2014-Sep-28 18:33N 49°09' W 123°02'0 0.0
2014-Sep-28 17:33N 49°09' W 123°02'0 0.0
2014-Sep-28 16:33N 49°09' W 123°02'0 0.0
2014-Sep-28 15:33N 49°09' W 123°02'1 0.8
2014-Sep-28 14:33N 49°08' W 123°03'1110.9
2014-Sep-28 13:33N 49°06' W 123°19'1010.4
2014-Sep-28 12:33N 49°10' W 123°34'1110.6
2014-Sep-28 11:33N 49°13' W 123°50'5 4.8
2014-Sep-28 10:33N 49°10' W 123°56'0 0.0
2014-Sep-28 09:33N 49°10' W 123°56'2 1.6
2014-Sep-28 08:33N 49°11' W 123°54'9 9.0
2014-Sep-28 07:33N 49°12' W 123°40'1010.3
2014-Sep-28 06:33N 49°08' W 123°25'1111.0
2014-Sep-28 05:33N 49°07' W 123°09'5 4.9
2014-Sep-28 04:33N 49°09' W 123°02'0 0.0
2014-Sep-28 03:33N 49°09' W 123°02'0 0.0
2014-Sep-28 02:33N 49°09' W 123°02'0 0.0
2014-Sep-28 01:33N 49°09' W 123°02'0 0.0
2014-Sep-28 00:33N 49°09' W 123°02'0 0.0
2014-Sep-27 23:33N 49°09' W 123°02'0 0.0
2014-Sep-27 22:33N 49°09' W 123°02'3 3.2
2014-Sep-27 21:33N 49°07' W 123°06'1010.4
2014-Sep-27 20:33N 49°06' W 123°22'1515.3
2014-Sep-27 19:33N 49°12' W 123°44'8 8.1
2014-Sep-27 18:33N 49°10' W 123°56'0 0.0
2014-Sep-27 17:33N 49°10' W 123°56'0 0.0
2014-Sep-27 16:33N 49°10' W 123°56'0 0.0
2014-Sep-27 15:33N 49°10' W 123°56'0 0.0
2014-Sep-27 14:33N 49°10' W 123°56'0 0.0
2014-Sep-27 12:21N 49°10' W 123°56'3 4.3
2014-Sep-27 11:33N 49°12' W 123°52'1515.3
2014-Sep-27 10:33N 49°09' W 123°30'1414.4
2014-Sep-27 09:33N 49°06' W 123°08'4 4.5
2014-Sep-27 08:33N 49°09' W 123°02'0 0.0
2014-Sep-27 07:33N 49°09' W 123°02'6 6.3
2014-Sep-27 06:34N 49°07' W 123°11'1111.2
2014-Sep-27 05:33N 49°08' W 123°29'1414.2
2014-Sep-27 04:33N 49°13' W 123°49'6 2.8
2014-Sep-27 02:34N 49°10' W 123°56'1110.7
2014-Sep-27 01:33N 49°12' W 123°39'1313.5
2014-Sep-27 00:33N 49°07' W 123°21'1212.0
2014-Sep-26 23:34N 49°09' W 123°02'0 0.2
2014-Sep-26 22:33N 49°09' W 123°02'4 3.7
2014-Sep-26 21:33N 49°07' W 123°07'9 8.8
2014-Sep-26 20:33N 49°04' W 123°20'1312.6
2014-Sep-26 19:33N 48°51' W 123°21'1010.4
2014-Sep-26 18:33N 48°41' W 123°24'0 0.0
2014-Sep-26 17:33N 48°41' W 123°24'0 0.0
2014-Sep-26 16:33N 48°41' W 123°24'0 0.0
2014-Sep-26 15:33N 48°41' W 123°24'0 0.0
2014-Sep-26 14:33N 48°41' W 123°24'0 0.0
2014-Sep-26 13:33N 48°41' W 123°24'0 0.0
2014-Sep-26 12:33N 48°41' W 123°24'2 2.2
2014-Sep-26 11:33N 48°43' W 123°24'1110.8
2014-Sep-26 10:34N 48°53' W 123°18'1313.4
2014-Sep-26 09:33N 49°07' W 123°17'10 9.6
2014-Sep-26 08:34N 49°09' W 123°02'0 0.0
2014-Sep-26 07:33N 49°09' W 123°02'6 6.0
2014-Sep-26 06:34N 49°07' W 123°11'1211.9
2014-Sep-26 05:33N 49°08' W 123°29'1414.0
2014-Sep-26 04:33N 49°13' W 123°49'5 5.2
2014-Sep-26 03:32N 49°10' W 123°56'0 0.0
2014-Sep-26 02:33N 49°10' W 123°56'10 9.9
2014-Sep-26 01:33N 49°12' W 123°41'1313.2
2014-Sep-26 00:34N 49°07' W 123°23'1312.9
2014-Sep-25 23:33N 49°09' W 123°03'1 0.5
2014-Sep-25 22:33N 49°09' W 123°02'4 4.4
2014-Sep-25 21:33N 49°06' W 123°08'9 9.1
2014-Sep-25 20:33N 49°02' W 123°20'1212.1
2014-Sep-25 19:31N 48°50' W 123°21'9 9.0
2014-Sep-25 18:32N 48°41' W 123°24'0 0.0
2014-Sep-25 17:33N 48°41' W 123°24'0 0.0
2014-Sep-25 16:32N 48°41' W 123°24'0 0.0
2014-Sep-25 15:30N 48°41' W 123°24'0 0.0
2014-Sep-25 14:33N 48°41' W 123°24'0 0.0
2014-Sep-25 13:33N 48°41' W 123°24'0 0.0
2014-Sep-25 12:33N 48°41' W 123°24'1 1.4
2014-Sep-25 11:34N 48°43' W 123°24'1212.2
2014-Sep-25 10:33N 48°54' W 123°19'1211.6
2014-Sep-25 09:33N 49°06' W 123°19'1111.3
2014-Sep-25 08:33N 49°09' W 123°02'0 0.0
2014-Sep-25 07:33N 49°09' W 123°02'6 6.3
2014-Sep-25 06:33N 49°07' W 123°12'1111.1
2014-Sep-25 05:33N 49°08' W 123°28'1413.7
2014-Sep-25 04:33N 49°13' W 123°48'6 5.9
2014-Sep-25 03:33N 49°10' W 123°56'0 0.1
2014-Sep-25 02:33N 49°10' W 123°56'1110.6
2014-Sep-25 01:33N 49°12' W 123°40'1413.7
2014-Sep-25 00:33N 49°07' W 123°21'1211.9
2014-Sep-24 23:34N 49°09' W 123°03'0 0.5
2014-Sep-24 22:33N 49°09' W 123°02'4 3.7
2014-Sep-24 21:33N 49°07' W 123°07'9 9.3
2014-Sep-24 20:33N 49°03' W 123°20'1312.3
2014-Sep-24 19:29N 48°50' W 123°20'9 9.3
2014-Sep-24 18:32N 48°41' W 123°24'0 0.0
2014-Sep-24 17:33N 48°41' W 123°24'0 0.0
2014-Sep-24 16:33N 48°41' W 123°24'0 0.0
2014-Sep-24 15:33N 48°41' W 123°24'0 0.0
2014-Sep-24 14:33N 48°41' W 123°24'0 0.0
2014-Sep-24 13:33N 48°41' W 123°24'0 0.0
2014-Sep-24 12:33N 48°41' W 123°24'4 3.7
2014-Sep-24 11:33N 48°45' W 123°23'1514.7
2014-Sep-24 10:33N 48°59' W 123°21'1110.8
2014-Sep-24 09:34N 49°06' W 123°08'5 4.6
2014-Sep-24 08:33N 49°09' W 123°02'0 0.0
2014-Sep-24 07:33N 49°09' W 123°02'8 8.0
2014-Sep-24 06:33N 49°08' W 123°14'1211.6
2014-Sep-24 05:33N 49°09' W 123°32'1313.1
2014-Sep-24 04:33N 49°13' W 123°51'4 4.1
2014-Sep-24 03:31N 49°10' W 123°56'0 0.1
2014-Sep-24 02:34N 49°10' W 123°56'1110.6
2014-Sep-24 01:33N 49°12' W 123°40'1413.6
2014-Sep-24 00:33N 49°06' W 123°21'1111.4
2014-Sep-23 23:33N 49°08' W 123°03'1 0.8
2014-Sep-23 22:34N 49°09' W 123°02'3 3.0
2014-Sep-23 21:34N 49°07' W 123°06'1010.2
2014-Sep-23 20:33N 49°03' W 123°20'1413.4
2014-Sep-23 19:33N 48°49' W 123°20'8 8.4
2014-Sep-23 18:33N 48°41' W 123°24'0 0.0
2014-Sep-23 17:33N 48°41' W 123°24'0 0.0
2014-Sep-23 16:33N 48°41' W 123°24'0 0.0
2014-Sep-23 15:33N 48°41' W 123°24'0 0.0
2014-Sep-23 14:33N 48°41' W 123°24'0 0.0
2014-Sep-23 13:33N 48°41' W 123°24'0 0.0
2014-Sep-23 12:33N 48°41' W 123°24'3 3.1
2014-Sep-23 11:33N 48°44' W 123°23'1414.3
2014-Sep-23 10:34N 48°58' W 123°19'1111.3
2014-Sep-23 09:33N 49°07' W 123°07'4 3.9
2014-Sep-23 08:33N 49°09' W 123°02'0 0.0
2014-Sep-23 07:33N 49°09' W 123°02'7 7.1
2014-Sep-23 06:33N 49°08' W 123°13'1212.0
2014-Sep-23 05:33N 49°09' W 123°31'1313.5
2014-Sep-23 04:33N 49°13' W 123°51'4 4.3
2014-Sep-23 03:33N 49°10' W 123°56'0 0.1
2014-Sep-23 02:33N 49°10' W 123°56'1111.0
2014-Sep-23 01:33N 49°12' W 123°39'1413.5
2014-Sep-23 00:33N 49°06' W 123°20'1211.7
2014-Sep-22 23:34N 49°09' W 123°03'0 0.3
2014-Sep-22 22:33N 49°09' W 123°02'0 0.0
2014-Sep-22 21:33N 49°09' W 123°02'0 0.1
2014-Sep-22 20:33N 49°09' W 123°02'0 0.0
2014-Sep-22 19:33N 49°09' W 123°02'0 0.0
2014-Sep-22 18:33N 49°09' W 123°02'0 0.0
2014-Sep-22 17:33N 49°09' W 123°02'0 0.0
2014-Sep-22 16:33N 49°09' W 123°02'0 0.0
2014-Sep-22 15:33N 49°09' W 123°02'0 0.0
2014-Sep-22 14:33N 49°09' W 123°02'0 0.0
2014-Sep-22 13:33N 49°09' W 123°02'0 0.0
2014-Sep-22 12:33N 49°09' W 123°02'0 0.0
2014-Sep-22 11:33N 49°09' W 123°02'0 0.0
2014-Sep-22 10:33N 49°09' W 123°02'0 0.0
2014-Sep-22 09:33N 49°09' W 123°02'0 0.0
2014-Sep-22 08:33N 49°09' W 123°02'0 0.0
2014-Sep-22 07:33N 49°09' W 123°02'0 0.0
2014-Sep-22 06:33N 49°09' W 123°02'0 0.0
2014-Sep-22 05:33N 49°09' W 123°02'0 0.0
2014-Sep-22 04:33N 49°09' W 123°02'0 0.0
2014-Sep-22 03:33N 49°09' W 123°02'0 0.0
2014-Sep-22 02:33N 49°09' W 123°02'0 0.0
2014-Sep-22 01:33N 49°09' W 123°02'0 0.0
2014-Sep-22 00:33N 49°09' W 123°02'0 0.0
2014-Sep-21 23:33N 49°09' W 123°02'0 0.0
2014-Sep-21 22:33N 49°09' W 123°02'0 0.0
2014-Sep-21 21:33N 49°09' W 123°02'0 0.0
2014-Sep-21 20:33N 49°09' W 123°02'0 0.0
2014-Sep-21 19:33N 49°09' W 123°02'0 0.0
2014-Sep-21 18:33N 49°09' W 123°02'0 0.0
2014-Sep-21 17:33N 49°09' W 123°02'0 0.0
2014-Sep-21 16:33N 49°09' W 123°02'0 0.0
2014-Sep-21 15:33N 49°09' W 123°02'4 3.9
2014-Sep-21 14:33N 49°07' W 123°07'9 9.4
2014-Sep-21 13:33N 49°06' W 123°21'1110.6
2014-Sep-21 12:33N 49°10' W 123°36'1010.3
2014-Sep-21 11:33N 49°12' W 123°52'3 3.5
2014-Sep-21 10:33N 49°10' W 123°56'0 0.0
2014-Sep-21 09:33N 49°10' W 123°56'2 1.6
2014-Sep-21 08:33N 49°11' W 123°54'9 8.9
2014-Sep-21 07:33N 49°12' W 123°40'10 9.9
2014-Sep-21 06:33N 49°08' W 123°27'1110.7
2014-Sep-21 05:34N 49°07' W 123°10'6 5.8
2014-Sep-21 04:33N 49°09' W 123°02'  
Track history (hours):
 
Tides and Currents Weather Stations Pressure Air Temp Water Temp Dewpoint Dewpoint Depression Visibility Wind Speed Wind Dir Waves Ship Positions

Carrier Princess

Last reported at 2014-Oct-01 05:34 UTC. Time now 2014-Oct-01 05:58 UTC.
Position N 49°08' W 123°28'.

Length 112 m; draft 3 m.

Type: Cargo ship. MMSI: 316003656.

Date/timePositionNaut miles runAvg speedWind from/ knotsBaromVisibWave heightAir tempDewpointWater temp
2014-Oct-01 05:34N 49°08' W 123°28'1414.3
2014-Oct-01 04:33N 49°12' W 123°48'5 5.2
2014-Oct-01 03:32N 49°10' W 123°56'0 0.1
2014-Oct-01 02:34N 49°10' W 123°56'1110.9
2014-Oct-01 01:33N 49°12' W 123°39'1413.6
2014-Oct-01 00:33N 49°07' W 123°20'1211.9
2014-Sep-30 23:33N 49°09' W 123°03'0 0.3
2014-Sep-30 22:33N 49°09' W 123°02'4 4.0
2014-Sep-30 21:34N 49°07' W 123°07'9 9.0
2014-Sep-30 20:33N 49°02' W 123°19'1110.7
2014-Sep-30 19:33N 48°52' W 123°21'1110.6
2014-Sep-30 18:33N 48°41' W 123°24'0 0.0
2014-Sep-30 17:33N 48°41' W 123°24'0 0.0
2014-Sep-30 16:32N 48°41' W 123°24'0 0.0
2014-Sep-30 15:33N 48°41' W 123°24'0 0.0
2014-Sep-30 14:33N 48°41' W 123°24'0 0.0
2014-Sep-30 13:33N 48°41' W 123°24'0 0.0
2014-Sep-30 12:32N 48°41' W 123°24'2 2.3
2014-Sep-30 11:33N 48°42' W 123°21'1111.3
2014-Sep-30 10:34N 48°53' W 123°18'1313.3
2014-Sep-30 09:34N 49°07' W 123°17'10 9.9
2014-Sep-30 08:33N 49°09' W 123°02'0 0.0
2014-Sep-30 07:34N 49°09' W 123°02'7 7.3
2014-Sep-30 06:34N 49°08' W 123°13'1212.3
2014-Sep-30 05:33N 49°09' W 123°32'1413.7
2014-Sep-30 04:34N 49°12' W 123°52'3 3.4
2014-Sep-30 03:34N 49°10' W 123°56'1 0.7
2014-Sep-30 02:32N 49°10' W 123°55'1010.4
2014-Sep-30 01:34N 49°12' W 123°39'1312.5
2014-Sep-30 00:33N 49°07' W 123°22'1212.5
2014-Sep-29 23:33N 49°09' W 123°03'0 0.4
2014-Sep-29 22:33N 49°09' W 123°02'0 0.0
2014-Sep-29 21:33N 49°09' W 123°02'0 0.2
2014-Sep-29 20:33N 49°09' W 123°02'0 0.0
2014-Sep-29 19:33N 49°09' W 123°02'0 0.0
2014-Sep-29 18:33N 49°09' W 123°02'0 0.0
2014-Sep-29 17:33N 49°09' W 123°02'0 0.0
2014-Sep-29 16:33N 49°09' W 123°02'0 0.0
2014-Sep-29 15:33N 49°09' W 123°02'0 0.0
2014-Sep-29 14:33N 49°09' W 123°02'0 0.0
2014-Sep-29 13:33N 49°09' W 123°02'0 0.0
2014-Sep-29 12:33N 49°09' W 123°02'0 0.0
2014-Sep-29 11:33N 49°09' W 123°02'0 0.0
2014-Sep-29 10:33N 49°09' W 123°02'0 0.0
2014-Sep-29 09:33N 49°09' W 123°02'0 0.0
2014-Sep-29 08:33N 49°09' W 123°02'0 0.0
2014-Sep-29 07:33N 49°09' W 123°02'0 0.0
2014-Sep-29 06:33N 49°09' W 123°02'0 0.0
2014-Sep-29 05:33N 49°09' W 123°02'0 0.0
2014-Sep-29 04:33N 49°09' W 123°02'0 0.0
2014-Sep-29 03:33N 49°09' W 123°02'0 0.0
2014-Sep-29 02:33N 49°09' W 123°02'0 0.0
2014-Sep-29 01:33N 49°09' W 123°02'0 0.0
2014-Sep-29 00:33N 49°09' W 123°02'0 0.0
2014-Sep-28 23:33N 49°09' W 123°02'0 0.0
2014-Sep-28 22:33N 49°09' W 123°02'0 0.0
2014-Sep-28 21:33N 49°09' W 123°02'0 0.0
2014-Sep-28 20:33N 49°09' W 123°02'0 0.0
2014-Sep-28 19:33N 49°09' W 123°02'0 0.0
2014-Sep-28 18:33N 49°09' W 123°02'0 0.0
2014-Sep-28 17:33N 49°09' W 123°02'0 0.0
2014-Sep-28 16:33N 49°09' W 123°02'0 0.0
2014-Sep-28 15:33N 49°09' W 123°02'1 0.8
2014-Sep-28 14:33N 49°08' W 123°03'1110.9
2014-Sep-28 13:33N 49°06' W 123°19'1010.4
2014-Sep-28 12:33N 49°10' W 123°34'1110.6
2014-Sep-28 11:33N 49°13' W 123°50'5 4.8
2014-Sep-28 10:33N 49°10' W 123°56'0 0.0
2014-Sep-28 09:33N 49°10' W 123°56'2 1.6
2014-Sep-28 08:33N 49°11' W 123°54'9 9.0
2014-Sep-28 07:33N 49°12' W 123°40'1010.3
2014-Sep-28 06:33N 49°08' W 123°25'1111.0
2014-Sep-28 05:33N 49°07' W 123°09'5 4.9
2014-Sep-28 04:33N 49°09' W 123°02'0 0.0
2014-Sep-28 03:33N 49°09' W 123°02'0 0.0
2014-Sep-28 02:33N 49°09' W 123°02'0 0.0
2014-Sep-28 01:33N 49°09' W 123°02'0 0.0
2014-Sep-28 00:33N 49°09' W 123°02'0 0.0
2014-Sep-27 23:33N 49°09' W 123°02'0 0.0
2014-Sep-27 22:33N 49°09' W 123°02'3 3.2
2014-Sep-27 21:33N 49°07' W 123°06'1010.4
2014-Sep-27 20:33N 49°06' W 123°22'1515.3
2014-Sep-27 19:33N 49°12' W 123°44'8 8.1
2014-Sep-27 18:33N 49°10' W 123°56'0 0.0
2014-Sep-27 17:33N 49°10' W 123°56'0 0.0
2014-Sep-27 16:33N 49°10' W 123°56'0 0.0
2014-Sep-27 15:33N 49°10' W 123°56'0 0.0
2014-Sep-27 14:33N 49°10' W 123°56'0 0.0
2014-Sep-27 12:21N 49°10' W 123°56'3 4.3
2014-Sep-27 11:33N 49°12' W 123°52'1515.3
2014-Sep-27 10:33N 49°09' W 123°30'1414.4
2014-Sep-27 09:33N 49°06' W 123°08'4 4.5
2014-Sep-27 08:33N 49°09' W 123°02'0 0.0
2014-Sep-27 07:33N 49°09' W 123°02'6 6.3
2014-Sep-27 06:34N 49°07' W 123°11'1111.2
2014-Sep-27 05:33N 49°08' W 123°29'1414.2
2014-Sep-27 04:33N 49°13' W 123°49'6 2.8
2014-Sep-27 02:34N 49°10' W 123°56'1110.7
2014-Sep-27 01:33N 49°12' W 123°39'1313.5
2014-Sep-27 00:33N 49°07' W 123°21'1212.0
2014-Sep-26 23:34N 49°09' W 123°02'0 0.2
2014-Sep-26 22:33N 49°09' W 123°02'4 3.7
2014-Sep-26 21:33N 49°07' W 123°07'9 8.8
2014-Sep-26 20:33N 49°04' W 123°20'1312.6
2014-Sep-26 19:33N 48°51' W 123°21'1010.4
2014-Sep-26 18:33N 48°41' W 123°24'0 0.0
2014-Sep-26 17:33N 48°41' W 123°24'0 0.0
2014-Sep-26 16:33N 48°41' W 123°24'0 0.0
2014-Sep-26 15:33N 48°41' W 123°24'0 0.0
2014-Sep-26 14:33N 48°41' W 123°24'0 0.0
2014-Sep-26 13:33N 48°41' W 123°24'0 0.0
2014-Sep-26 12:33N 48°41' W 123°24'2 2.2
2014-Sep-26 11:33N 48°43' W 123°24'1110.8
2014-Sep-26 10:34N 48°53' W 123°18'1313.4
2014-Sep-26 09:33N 49°07' W 123°17'10 9.6
2014-Sep-26 08:34N 49°09' W 123°02'0 0.0
2014-Sep-26 07:33N 49°09' W 123°02'6 6.0
2014-Sep-26 06:34N 49°07' W 123°11'1211.9
2014-Sep-26 05:33N 49°08' W 123°29'1414.0
2014-Sep-26 04:33N 49°13' W 123°49'5 5.2
2014-Sep-26 03:32N 49°10' W 123°56'0 0.0
2014-Sep-26 02:33N 49°10' W 123°56'10 9.9
2014-Sep-26 01:33N 49°12' W 123°41'1313.2
2014-Sep-26 00:34N 49°07' W 123°23'1312.9
2014-Sep-25 23:33N 49°09' W 123°03'1 0.5
2014-Sep-25 22:33N 49°09' W 123°02'4 4.4
2014-Sep-25 21:33N 49°06' W 123°08'9 9.1
2014-Sep-25 20:33N 49°02' W 123°20'1212.1
2014-Sep-25 19:31N 48°50' W 123°21'9 9.0
2014-Sep-25 18:32N 48°41' W 123°24'0 0.0
2014-Sep-25 17:33N 48°41' W 123°24'0 0.0
2014-Sep-25 16:32N 48°41' W 123°24'0 0.0
2014-Sep-25 15:30N 48°41' W 123°24'0 0.0
2014-Sep-25 14:33N 48°41' W 123°24'0 0.0
2014-Sep-25 13:33N 48°41' W 123°24'0 0.0
2014-Sep-25 12:33N 48°41' W 123°24'1 1.4
2014-Sep-25 11:34N 48°43' W 123°24'1212.2
2014-Sep-25 10:33N 48°54' W 123°19'1211.6
2014-Sep-25 09:33N 49°06' W 123°19'1111.3
2014-Sep-25 08:33N 49°09' W 123°02'0 0.0
2014-Sep-25 07:33N 49°09' W 123°02'6 6.3
2014-Sep-25 06:33N 49°07' W 123°12'1111.1
2014-Sep-25 05:33N 49°08' W 123°28'1413.7
2014-Sep-25 04:33N 49°13' W 123°48'6 5.9
2014-Sep-25 03:33N 49°10' W 123°56'0 0.1
2014-Sep-25 02:33N 49°10' W 123°56'1110.6
2014-Sep-25 01:33N 49°12' W 123°40'1413.7
2014-Sep-25 00:33N 49°07' W 123°21'1211.9
2014-Sep-24 23:34N 49°09' W 123°03'0 0.5
2014-Sep-24 22:33N 49°09' W 123°02'4 3.7
2014-Sep-24 21:33N 49°07' W 123°07'9 9.3
2014-Sep-24 20:33N 49°03' W 123°20'1312.3
2014-Sep-24 19:29N 48°50' W 123°20'9 9.3
2014-Sep-24 18:32N 48°41' W 123°24'0 0.0
2014-Sep-24 17:33N 48°41' W 123°24'0 0.0
2014-Sep-24 16:33N 48°41' W 123°24'0 0.0
2014-Sep-24 15:33N 48°41' W 123°24'0 0.0
2014-Sep-24 14:33N 48°41' W 123°24'0 0.0
2014-Sep-24 13:33N 48°41' W 123°24'0 0.0
2014-Sep-24 12:33N 48°41' W 123°24'4 3.7
2014-Sep-24 11:33N 48°45' W 123°23'1514.7
2014-Sep-24 10:33N 48°59' W 123°21'1110.8
2014-Sep-24 09:34N 49°06' W 123°08'5 4.6
2014-Sep-24 08:33N 49°09' W 123°02'0 0.0
2014-Sep-24 07:33N 49°09' W 123°02'8 8.0
2014-Sep-24 06:33N 49°08' W 123°14'1211.6
2014-Sep-24 05:33N 49°09' W 123°32'1313.1
2014-Sep-24 04:33N 49°13' W 123°51'4 4.1
2014-Sep-24 03:31N 49°10' W 123°56'0 0.1
2014-Sep-24 02:34N 49°10' W 123°56'1110.6
2014-Sep-24 01:33N 49°12' W 123°40'1413.6
2014-Sep-24 00:33N 49°06' W 123°21'1111.4
2014-Sep-23 23:33N 49°08' W 123°03'1 0.8
2014-Sep-23 22:34N 49°09' W 123°02'3 3.0
2014-Sep-23 21:34N 49°07' W 123°06'1010.2
2014-Sep-23 20:33N 49°03' W 123°20'1413.4
2014-Sep-23 19:33N 48°49' W 123°20'8 8.4
2014-Sep-23 18:33N 48°41' W 123°24'0 0.0
2014-Sep-23 17:33N 48°41' W 123°24'0 0.0
2014-Sep-23 16:33N 48°41' W 123°24'0 0.0
2014-Sep-23 15:33N 48°41' W 123°24'0 0.0
2014-Sep-23 14:33N 48°41' W 123°24'0 0.0
2014-Sep-23 13:33N 48°41' W 123°24'0 0.0
2014-Sep-23 12:33N 48°41' W 123°24'3 3.1
2014-Sep-23 11:33N 48°44' W 123°23'1414.3
2014-Sep-23 10:34N 48°58' W 123°19'1111.3
2014-Sep-23 09:33N 49°07' W 123°07'4 3.9
2014-Sep-23 08:33N 49°09' W 123°02'0 0.0
2014-Sep-23 07:33N 49°09' W 123°02'7 7.1
2014-Sep-23 06:33N 49°08' W 123°13'1212.0
2014-Sep-23 05:33N 49°09' W 123°31'1313.5
2014-Sep-23 04:33N 49°13' W 123°51'4 4.3
2014-Sep-23 03:33N 49°10' W 123°56'0 0.1
2014-Sep-23 02:33N 49°10' W 123°56'1111.0
2014-Sep-23 01:33N 49°12' W 123°39'1413.5
2014-Sep-23 00:33N 49°06' W 123°20'1211.7
2014-Sep-22 23:34N 49°09' W 123°03'0 0.3
2014-Sep-22 22:33N 49°09' W 123°02'0 0.0
2014-Sep-22 21:33N 49°09' W 123°02'0 0.1
2014-Sep-22 20:33N 49°09' W 123°02'0 0.0
2014-Sep-22 19:33N 49°09' W 123°02'0 0.0
2014-Sep-22 18:33N 49°09' W 123°02'0 0.0
2014-Sep-22 17:33N 49°09' W 123°02'0 0.0
2014-Sep-22 16:33N 49°09' W 123°02'0 0.0
2014-Sep-22 15:33N 49°09' W 123°02'0 0.0
2014-Sep-22 14:33N 49°09' W 123°02'0 0.0
2014-Sep-22 13:33N 49°09' W 123°02'0 0.0
2014-Sep-22 12:33N 49°09' W 123°02'0 0.0
2014-Sep-22 11:33N 49°09' W 123°02'0 0.0
2014-Sep-22 10:33N 49°09' W 123°02'0 0.0
2014-Sep-22 09:33N 49°09' W 123°02'0 0.0
2014-Sep-22 08:33N 49°09' W 123°02'0 0.0
2014-Sep-22 07:33N 49°09' W 123°02'0 0.0
2014-Sep-22 06:33N 49°09' W 123°02'0 0.0
2014-Sep-22 05:33N 49°09' W 123°02'0 0.0
2014-Sep-22 04:33N 49°09' W 123°02'0 0.0
2014-Sep-22 03:33N 49°09' W 123°02'0 0.0
2014-Sep-22 02:33N 49°09' W 123°02'0 0.0
2014-Sep-22 01:33N 49°09' W 123°02'0 0.0
2014-Sep-22 00:33N 49°09' W 123°02'0 0.0
2014-Sep-21 23:33N 49°09' W 123°02'0 0.0
2014-Sep-21 22:33N 49°09' W 123°02'0 0.0
2014-Sep-21 21:33N 49°09' W 123°02'0 0.0
2014-Sep-21 20:33N 49°09' W 123°02'0 0.0
2014-Sep-21 19:33N 49°09' W 123°02'0 0.0
2014-Sep-21 18:33N 49°09' W 123°02'0 0.0
2014-Sep-21 17:33N 49°09' W 123°02'0 0.0
2014-Sep-21 16:33N 49°09' W 123°02'0 0.0
2014-Sep-21 15:33N 49°09' W 123°02'4 3.9
2014-Sep-21 14:33N 49°07' W 123°07'9 9.4
2014-Sep-21 13:33N 49°06' W 123°21'1110.6
2014-Sep-21 12:33N 49°10' W 123°36'1010.3
2014-Sep-21 11:33N 49°12' W 123°52'3 3.5
2014-Sep-21 10:33N 49°10' W 123°56'0 0.0
2014-Sep-21 09:33N 49°10' W 123°56'2 1.6
2014-Sep-21 08:33N 49°11' W 123°54'9 8.9
2014-Sep-21 07:33N 49°12' W 123°40'10 9.9
2014-Sep-21 06:33N 49°08' W 123°27'1110.7
2014-Sep-21 05:34N 49°07' W 123°10'6 5.8
2014-Sep-21 04:33N 49°09' W 123°02'  

Dump ship's entire track history